Elbella — 9HA2358 — position and weather

sailwx.info

Track history (hours):
 
Tides and Currents Weather Stations Pressure Air Temp Water Temp Dewpoint Dewpoint Depression Visibility Wind Speed Wind Dir Waves Ship Positions

Elbella

Last reported at 2017-Mar-22 18:24 UTC. Time now 2017-Mar-26 09:10 UTC.
Position N 34°55' E 128°51'.

Length 176 m; draft 7.1 m.

Type: Ship. MMSI: 248422000.

Date/timePositionNaut miles runAvg speedWind from/ knotsBaromVisibWave heightAir tempDewpointWater temp
2017-Mar-22 18:24N 34°55' E 128°51'10 2.6
2017-Mar-22 14:28N 35°05' E 128°49'0 0.0
2017-Mar-22 13:27N 35°05' E 128°49'0 0.0
2017-Mar-22 12:33N 35°05' E 128°49'0 0.0
2017-Mar-22 11:33N 35°05' E 128°49'0 0.0
2017-Mar-22 10:33N 35°05' E 128°49'0 0.0
2017-Mar-22 09:28N 35°05' E 128°49'7 5.0
2017-Mar-22 08:08N 34°58' E 128°49'4 6.5
2017-Mar-22 07:33N 34°55' E 128°52'  
2017-Mar-19 04:33N 34°34' E 128°37'  
2017-Mar-16 11:33N 31°08' E 122°16'1514.7
2017-Mar-16 10:33N 31°15' E 122°01'1514.6
2017-Mar-16 09:33N 31°19' E 121°44'5 4.8
2017-Mar-16 08:31N 31°20' E 121°39'0 0.1
2017-Mar-16 07:31N 31°20' E 121°39'0 0.1
2017-Mar-16 06:31N 31°20' E 121°39'0 0.0
2017-Mar-16 05:28N 31°20' E 121°39'0 0.1
2017-Mar-16 04:31N 31°20' E 121°39'0 0.0
2017-Mar-16 03:19N 31°20' E 121°39'0 0.0
2017-Mar-16 02:31N 31°20' E 121°39'0 0.1
2017-Mar-16 01:31N 31°20' E 121°39'0 0.0
2017-Mar-16 00:31N 31°20' E 121°39'0 0.0
2017-Mar-15 23:31N 31°20' E 121°39'0 0.2
2017-Mar-15 22:33N 31°21' E 121°39'8 7.6
2017-Mar-15 21:33N 31°18' E 121°47'1010.0
2017-Mar-15 20:33N 31°15' E 121°59'9 8.7
2017-Mar-15 19:33N 31°12' E 122°08'1110.9
2017-Mar-15 18:33N 31°06' E 122°19'58 3.2
2017-Mar-15 00:18N 30°24' E 123°05'6 8.0
2017-Mar-14 23:33N 30°18' E 123°06'6 6.2
2017-Mar-14 22:33N 30°13' E 123°01'18 5.9
2017-Mar-14 19:33N 29°58' E 123°12'7 6.6
2017-Mar-14 18:27N 29°51' E 123°08'7 7.7
2017-Mar-14 17:33N 29°45' E 123°05'8 7.9
2017-Mar-14 16:31N 29°37' E 123°05'8 7.9
2017-Mar-14 15:33N 29°29' E 123°05'7 7.4
2017-Mar-14 14:33N 29°23' E 123°02'8 7.8
2017-Mar-14 13:30N 29°16' E 123°06'  
Track history (hours):
 
Tides and Currents Weather Stations Pressure Air Temp Water Temp Dewpoint Dewpoint Depression Visibility Wind Speed Wind Dir Waves Ship Positions

Elbella

Last reported at 2017-Mar-22 18:24 UTC. Time now 2017-Mar-26 09:10 UTC.
Position N 34°55' E 128°51'.

Length 176 m; draft 7.1 m.

Type: Ship. MMSI: 248422000.

Date/timePositionNaut miles runAvg speedWind from/ knotsBaromVisibWave heightAir tempDewpointWater temp
2017-Mar-22 18:24N 34°55' E 128°51'10 2.6
2017-Mar-22 14:28N 35°05' E 128°49'0 0.0
2017-Mar-22 13:27N 35°05' E 128°49'0 0.0
2017-Mar-22 12:33N 35°05' E 128°49'0 0.0
2017-Mar-22 11:33N 35°05' E 128°49'0 0.0
2017-Mar-22 10:33N 35°05' E 128°49'0 0.0
2017-Mar-22 09:28N 35°05' E 128°49'7 5.0
2017-Mar-22 08:08N 34°58' E 128°49'4 6.5
2017-Mar-22 07:33N 34°55' E 128°52'  
2017-Mar-19 04:33N 34°34' E 128°37'  
2017-Mar-16 11:33N 31°08' E 122°16'1514.7
2017-Mar-16 10:33N 31°15' E 122°01'1514.6
2017-Mar-16 09:33N 31°19' E 121°44'5 4.8
2017-Mar-16 08:31N 31°20' E 121°39'0 0.1
2017-Mar-16 07:31N 31°20' E 121°39'0 0.1
2017-Mar-16 06:31N 31°20' E 121°39'0 0.0
2017-Mar-16 05:28N 31°20' E 121°39'0 0.1
2017-Mar-16 04:31N 31°20' E 121°39'0 0.0
2017-Mar-16 03:19N 31°20' E 121°39'0 0.0
2017-Mar-16 02:31N 31°20' E 121°39'0 0.1
2017-Mar-16 01:31N 31°20' E 121°39'0 0.0
2017-Mar-16 00:31N 31°20' E 121°39'0 0.0
2017-Mar-15 23:31N 31°20' E 121°39'0 0.2
2017-Mar-15 22:33N 31°21' E 121°39'8 7.6
2017-Mar-15 21:33N 31°18' E 121°47'1010.0
2017-Mar-15 20:33N 31°15' E 121°59'9 8.7
2017-Mar-15 19:33N 31°12' E 122°08'1110.9
2017-Mar-15 18:33N 31°06' E 122°19'58 3.2
2017-Mar-15 00:18N 30°24' E 123°05'6 8.0
2017-Mar-14 23:33N 30°18' E 123°06'6 6.2
2017-Mar-14 22:33N 30°13' E 123°01'18 5.9
2017-Mar-14 19:33N 29°58' E 123°12'7 6.6
2017-Mar-14 18:27N 29°51' E 123°08'7 7.7
2017-Mar-14 17:33N 29°45' E 123°05'8 7.9
2017-Mar-14 16:31N 29°37' E 123°05'8 7.9
2017-Mar-14 15:33N 29°29' E 123°05'7 7.4
2017-Mar-14 14:33N 29°23' E 123°02'8 7.8
2017-Mar-14 13:30N 29°16' E 123°06'  

Dump ship's entire track history